Time;durP1;ratioP1;P1;durP2;ratioP2;P2;SDS_P1;SDS_P2;PMS_P1;PMS_P2;Temp;Humidity;BMP_temperature;BMP_pressure;BME280_temperature;BME280_humidity;BME280_pressure;Samples;Min_cycle;Max_cycle;Signal;HPM_P1;HPM_P2
2023/03/14 00:00:00;;;;;;;;;4.00;3.00;;;;;;;;117355;1182;24943;-61
2023/03/14 00:02:29;;;;;;;;;3.00;2.67;;;;;;;;117364;1184;24877;-62
2023/03/14 00:04:57;;;;;;;;;2.50;2.00;;;;;;;;117348;1195;24900;-61
2023/03/14 00:07:26;;;;;;;;;4.00;4.00;;;;;;;;117331;1195;25405;-62
2023/03/14 00:09:54;;;;;;;;;6.00;3.00;;;;;;;;117365;1187;25271;-62
2023/03/14 00:12:23;;;;;;;;;4.00;4.00;;;;;;;;117365;1182;24995;-61
2023/03/14 00:14:51;;;;;;;;;5.67;4.33;;;;;;;;117376;1195;24744;-62
2023/03/14 00:17:19;;;;;;;;;3.67;3.67;;;;;;;;117380;1182;25234;-61
2023/03/14 00:19:52;;;;;;;;;3.50;2.00;;;;;;;;117367;1195;24712;-71
2023/03/14 00:22:21;;;;;;;;;4.00;2.00;;;;;;;;117151;1182;25242;-70
2023/03/14 00:24:50;;;;;;;;;3.75;3.75;;;;;;;;117419;1183;25140;-67
2023/03/14 00:27:18;;;;;;;;;4.50;3.00;;;;;;;;117398;1182;25273;-68
2023/03/14 00:29:47;;;;;;;;;1.67;1.67;;;;;;;;117375;1190;25686;-69
2023/03/14 00:32:15;;;;;;;;;4.50;3.75;;;;;;;;117398;1192;24859;-70
2023/03/14 00:34:43;;;;;;;;;4.00;2.00;;;;;;;;117293;1184;25060;-63
2023/03/14 00:37:12;;;;;;;;;3.50;3.50;;;;;;;;117218;1182;25710;-60
2023/03/14 00:39:40;;;;;;;;;4.67;4.67;;;;;;;;117230;1182;25157;-62
2023/03/14 00:42:09;;;;;;;;;3.00;3.00;;;;;;;;117382;1182;24871;-62
2023/03/14 00:44:37;;;;;;;;;3.00;3.00;;;;;;;;117336;1184;25080;-65
2023/03/14 00:47:05;;;;;;;;;4.33;3.33;;;;;;;;117363;1187;25466;-63
2023/03/14 00:49:34;;;;;;;;;3.33;1.00;;;;;;;;117414;1182;25196;-63
2023/03/14 00:52:03;;;;;;;;;2.00;2.00;;;;;;;;117369;1192;25674;-62
2023/03/14 00:54:31;;;;;;;;;4.00;4.00;;;;;;;;117405;1182;25545;-62
2023/03/14 00:57:00;;;;;;;;;2.00;2.00;;;;;;;;117380;1190;24775;-61
2023/03/14 00:59:28;;;;;;;;;2.00;2.00;;;;;;;;117303;1184;25673;-61
2023/03/14 01:01:57;;;;;;;;;2.00;1.67;;;;;;;;117367;1184;25549;-61
2023/03/14 01:04:25;;;;;;;;;2.67;2.00;;;;;;;;117351;1195;25419;-60
2023/03/14 01:06:54;;;;;;;;;3.33;2.33;;;;;;;;117327;1188;25380;-61
2023/03/14 01:09:22;;;;;;;;;3.00;3.00;;;;;;;;117320;1184;25394;-60
2023/03/14 01:11:51;;;;;;;;;3.33;3.33;;;;;;;;117361;1182;25726;-61
2023/03/14 01:14:19;;;;;;;;;2.00;1.00;;;;;;;;117369;1182;25083;-61
2023/03/14 01:16:47;;;;;;;;;3.25;3.00;;;;;;;;117334;1187;24838;-61
2023/03/14 01:19:16;;;;;;;;;2.00;2.00;;;;;;;;117344;1195;24798;-61
2023/03/14 01:21:44;;;;;;;;;3.00;3.00;;;;;;;;117353;1182;24937;-61
2023/03/14 01:24:13;;;;;;;;;4.00;3.00;;;;;;;;117350;1184;24921;-61
2023/03/14 01:26:41;;;;;;;;;3.67;2.00;;;;;;;;117354;1195;25138;-62
2023/03/14 01:29:09;;;;;;;;;3.00;3.00;;;;;;;;117341;1182;25955;-61
2023/03/14 01:31:38;;;;;;;;;4.00;3.00;;;;;;;;117316;1183;25595;-61
2023/03/14 01:34:06;;;;;;;;;5.00;3.00;;;;;;;;117340;1187;25183;-61
2023/03/14 01:36:35;;;;;;;;;3.00;3.00;;;;;;;;117336;1184;25435;-61
2023/03/14 01:39:05;;;;;;;;;3.00;3.00;;;;;;;;117110;1196;25386;-62
2023/03/14 01:41:34;;;;;;;;;2.00;2.00;;;;;;;;117344;1183;25194;-62
2023/03/14 01:44:02;;;;;;;;;3.00;2.00;;;;;;;;117318;1183;25166;-62
2023/03/14 01:46:35;;;;;;;;;5.33;3.33;;;;;;;;117284;1195;24750;-61
2023/03/14 01:49:13;;;;;;;;;3.50;3.50;;;;;;;;117277;1194;24909;-61
2023/03/14 01:52:05;;;;;;;;;3.00;2.00;;;;;;;;117359;1186;24729;-62
2023/03/14 01:54:36;;;;;;;;;2.00;2.00;;;;;;;;117371;1182;25517;-62
2023/03/14 01:57:17;;;;;;;;;2.50;2.50;;;;;;;;117355;1188;25573;-62
2023/03/14 01:59:54;;;;;;;;;4.00;3.75;;;;;;;;117357;1184;25090;-62
2023/03/14 02:02:24;;;;;;;;;4.50;2.50;;;;;;;;117337;1184;25571;-62
2023/03/14 02:04:54;;;;;;;;;3.00;3.00;;;;;;;;117350;1182;24864;-62
2023/03/14 02:07:27;;;;;;;;;4.00;3.00;;;;;;;;117368;1182;25448;-62
2023/03/14 02:09:56;;;;;;;;;2.00;1.00;;;;;;;;117330;1183;24730;-62
2023/03/14 02:12:24;;;;;;;;;2.00;2.00;;;;;;;;117282;1183;25601;-62
2023/03/14 02:14:53;;;;;;;;;3.00;1.00;;;;;;;;117374;1182;25029;-61
2023/03/14 02:17:22;;;;;;;;;4.00;3.00;;;;;;;;117350;1184;25218;-63
2023/03/14 02:20:07;;;;;;;;;4.00;2.00;;;;;;;;117072;1183;25515;-61
2023/03/14 02:22:37;;;;;;;;;3.33;3.33;;;;;;;;117142;1184;24996;-64
2023/03/14 02:25:11;;;;;;;;;3.00;3.00;;;;;;;;117148;1183;25614;-66
2023/03/14 02:27:39;;;;;;;;;3.00;3.00;;;;;;;;117297;1195;25226;-64
2023/03/14 02:30:11;;;;;;;;;2.00;2.00;;;;;;;;117052;1184;25673;-63
2023/03/14 02:32:42;;;;;;;;;2.00;2.00;;;;;;;;117171;1196;25176;-70
2023/03/14 02:35:13;;;;;;;;;2.00;2.00;;;;;;;;117389;1183;25540;-69
2023/03/14 02:37:57;;;;;;;;;2.50;2.50;;;;;;;;117437;1183;25631;-62
2023/03/14 02:40:26;;;;;;;;;1.00;1.00;;;;;;;;117434;1184;25734;-61
2023/03/14 02:42:55;;;;;;;;;2.00;2.00;;;;;;;;117387;1184;25710;-61
2023/03/14 02:45:23;;;;;;;;;2.67;2.00;;;;;;;;117432;1194;24867;-61
2023/03/14 02:48:02;;;;;;;;;4.67;4.67;;;;;;;;117441;1184;25516;-61
2023/03/14 02:50:33;;;;;;;;;2.00;2.00;;;;;;;;117369;1182;25273;-61
2023/03/14 02:53:02;;;;;;;;;3.50;3.50;;;;;;;;117352;1182;25664;-62
2023/03/14 02:55:30;;;;;;;;;3.50;3.00;;;;;;;;117389;1182;24790;-62
2023/03/14 02:57:59;;;;;;;;;5.00;3.00;;;;;;;;117438;1181;24755;-61
2023/03/14 03:00:27;;;;;;;;;2.50;2.50;;;;;;;;117445;1182;25607;-61
2023/03/14 03:02:56;;;;;;;;;2.00;2.00;;;;;;;;117406;1182;25434;-62
2023/03/14 03:05:24;;;;;;;;;2.67;2.67;;;;;;;;117421;1184;25042;-61
2023/03/14 03:07:53;;;;;;;;;3.00;2.00;;;;;;;;117369;1194;25574;-61
2023/03/14 03:10:21;;;;;;;;;2.00;2.00;;;;;;;;117361;1191;25576;-62
2023/03/14 03:12:51;;;;;;;;;2.67;2.67;;;;;;;;117398;1182;25015;-61
2023/03/14 03:15:19;;;;;;;;;3.67;3.00;;;;;;;;117423;1184;24667;-62
2023/03/14 03:17:48;;;;;;;;;4.50;2.50;;;;;;;;117370;1186;25613;-61
2023/03/14 03:20:16;;;;;;;;;3.67;3.00;;;;;;;;117401;1184;25627;-62
2023/03/14 03:22:45;;;;;;;;;2.00;2.00;;;;;;;;117416;1182;24946;-62
2023/03/14 03:25:13;;;;;;;;;7.00;3.00;;;;;;;;117437;1194;25132;-62
2023/03/14 03:27:41;;;;;;;;;2.75;1.00;;;;;;;;117417;1191;24764;-62
2023/03/14 03:30:10;;;;;;;;;3.00;3.00;;;;;;;;117396;1194;24789;-61
2023/03/14 03:32:39;;;;;;;;;1.00;1.00;;;;;;;;117432;1185;24778;-62
2023/03/14 03:35:08;;;;;;;;;5.00;2.00;;;;;;;;117373;1181;24817;-61
2023/03/14 03:37:36;;;;;;;;;2.00;2.00;;;;;;;;117432;1182;25646;-61
2023/03/14 03:40:06;;;;;;;;;2.00;2.00;;;;;;;;117393;1185;25399;-62
2023/03/14 03:42:35;;;;;;;;;4.33;2.00;;;;;;;;117389;1182;24815;-61
2023/03/14 03:45:04;;;;;;;;;4.00;2.00;;;;;;;;117441;1185;24681;-61
2023/03/14 03:47:32;;;;;;;;;1.67;1.67;;;;;;;;117445;1182;24804;-61
2023/03/14 03:50:01;;;;;;;;;2.00;2.00;;;;;;;;117415;1194;25018;-61
2023/03/14 03:52:29;;;;;;;;;3.50;3.00;;;;;;;;117402;1184;25193;-61
2023/03/14 03:54:57;;;;;;;;;7.00;3.00;;;;;;;;117435;1194;24746;-61
2023/03/14 03:57:26;;;;;;;;;3.00;3.00;;;;;;;;117447;1183;25362;-60
2023/03/14 03:59:54;;;;;;;;;4.00;3.00;;;;;;;;117421;1194;25565;-61
2023/03/14 04:02:22;;;;;;;;;4.50;3.00;;;;;;;;117450;1182;25580;-61
2023/03/14 04:04:51;;;;;;;;;3.00;3.00;;;;;;;;117424;1184;24703;-61
2023/03/14 04:07:20;;;;;;;;;2.00;2.00;;;;;;;;117361;1191;25509;-61
2023/03/14 04:09:49;;;;;;;;;3.50;3.50;;;;;;;;117417;1194;25219;-61
2023/03/14 04:12:17;;;;;;;;;5.00;3.00;;;;;;;;117421;1190;24956;-61
2023/03/14 04:14:46;;;;;;;;;3.75;3.00;;;;;;;;117381;1190;25592;-61
2023/03/14 04:17:14;;;;;;;;;3.50;3.50;;;;;;;;117455;1182;25000;-61
2023/03/14 04:19:43;;;;;;;;;6.67;4.67;;;;;;;;117438;1181;24863;-61
2023/03/14 04:22:11;;;;;;;;;3.00;2.67;;;;;;;;117373;1182;25425;-61
2023/03/14 04:24:39;;;;;;;;;5.25;3.00;;;;;;;;117409;1182;24794;-61
2023/03/14 04:27:08;;;;;;;;;4.33;4.33;;;;;;;;117384;1190;24937;-60
2023/03/14 04:29:36;;;;;;;;;4.00;4.00;;;;;;;;117401;1194;25347;-61
2023/03/14 04:32:05;;;;;;;;;6.67;5.00;;;;;;;;117417;1184;25700;-61
2023/03/14 04:34:33;;;;;;;;;6.00;4.00;;;;;;;;117420;1182;25065;-61
2023/03/14 04:37:02;;;;;;;;;7.33;6.67;;;;;;;;117414;1181;25588;-61
2023/03/14 04:39:30;;;;;;;;;5.00;4.67;;;;;;;;117374;1182;24977;-61
2023/03/14 04:41:59;;;;;;;;;8.00;7.00;;;;;;;;117423;1182;25471;-61
2023/03/14 04:44:27;;;;;;;;;4.00;4.00;;;;;;;;117411;1182;25182;-61
2023/03/14 04:46:56;;;;;;;;;5.50;5.50;;;;;;;;117421;1185;25015;-62
2023/03/14 04:49:24;;;;;;;;;5.00;5.00;;;;;;;;117404;1182;25208;-61
2023/03/14 04:51:53;;;;;;;;;5.00;5.00;;;;;;;;117420;1182;25508;-61
2023/03/14 04:54:21;;;;;;;;;6.00;5.00;;;;;;;;117433;1182;25289;-61
2023/03/14 04:56:50;;;;;;;;;8.00;6.33;;;;;;;;117415;1189;24765;-61
2023/03/14 04:59:18;;;;;;;;;9.67;5.00;;;;;;;;117401;1182;25122;-61
2023/03/14 05:01:48;;;;;;;;;7.00;6.00;;;;;;;;117405;1182;25582;-60
2023/03/14 05:04:16;;;;;;;;;7.00;7.00;;;;;;;;117415;1194;25550;-60
2023/03/14 05:06:45;;;;;;;;;7.00;5.00;;;;;;;;117423;1182;25078;-61
2023/03/14 05:09:15;;;;;;;;;5.00;4.33;;;;;;;;117398;1183;25469;-60
2023/03/14 05:11:43;;;;;;;;;10.33;7.33;;;;;;;;117407;1185;24852;-60
2023/03/14 05:14:11;;;;;;;;;10.00;7.00;;;;;;;;117439;1181;25388;-60
2023/03/14 05:16:40;;;;;;;;;8.00;6.67;;;;;;;;117372;1182;25127;-60
2023/03/14 05:19:08;;;;;;;;;6.67;6.00;;;;;;;;117412;1184;25371;-60
2023/03/14 05:21:37;;;;;;;;;8.50;8.50;;;;;;;;117340;1184;24709;-61
2023/03/14 05:24:06;;;;;;;;;7.00;6.67;;;;;;;;117354;1190;25426;-60
2023/03/14 05:26:34;;;;;;;;;9.00;7.00;;;;;;;;117443;1186;25001;-60
2023/03/14 05:29:03;;;;;;;;;9.00;9.00;;;;;;;;117407;1194;24829;-61
2023/03/14 05:31:31;;;;;;;;;6.67;6.67;;;;;;;;117410;1194;25138;-60
2023/03/14 05:33:59;;;;;;;;;11.00;7.50;;;;;;;;117350;1188;25357;-60
2023/03/14 05:36:28;;;;;;;;;10.75;8.00;;;;;;;;117314;1183;25578;-61
2023/03/14 05:38:56;;;;;;;;;9.00;8.00;;;;;;;;117207;1182;24709;-61
2023/03/14 05:41:25;;;;;;;;;6.25;6.25;;;;;;;;117391;1194;25458;-64
2023/03/14 05:43:53;;;;;;;;;7.00;7.00;;;;;;;;117390;1182;24914;-63
2023/03/14 05:46:22;;;;;;;;;11.00;11.00;;;;;;;;117391;1193;25419;-62
2023/03/14 05:48:50;;;;;;;;;11.00;11.00;;;;;;;;117445;1187;24940;-63
2023/03/14 05:51:19;;;;;;;;;10.67;9.00;;;;;;;;117464;1182;25424;-61
2023/03/14 05:53:47;;;;;;;;;9.00;9.00;;;;;;;;117412;1182;25497;-60
2023/03/14 05:56:16;;;;;;;;;14.00;8.00;;;;;;;;117432;1182;25046;-61
2023/03/14 05:58:44;;;;;;;;;9.00;9.00;;;;;;;;117469;1182;25732;-61
2023/03/14 06:01:12;;;;;;;;;10.25;10.00;;;;;;;;117404;1182;25173;-66
2023/03/14 06:03:41;;;;;;;;;12.50;9.50;;;;;;;;117397;1190;24967;-65
2023/03/14 06:06:09;;;;;;;;;10.00;8.33;;;;;;;;117359;1184;24874;-62
2023/03/14 06:08:38;;;;;;;;;9.00;7.00;;;;;;;;117471;1186;25347;-69
2023/03/14 06:11:06;;;;;;;;;8.67;6.00;;;;;;;;117389;1184;24909;-75
2023/03/14 06:13:35;;;;;;;;;6.50;5.00;;;;;;;;117339;1184;25306;-70
2023/03/14 06:16:04;;;;;;;;;9.00;8.00;;;;;;;;117385;1193;24965;-69
2023/03/14 06:18:32;;;;;;;;;7.50;7.00;;;;;;;;117285;1187;25776;-70
2023/03/14 06:21:01;;;;;;;;;7.00;7.00;;;;;;;;117363;1183;24861;-70
2023/03/14 06:23:31;;;;;;;;;7.00;6.00;;;;;;;;117329;1194;25625;-69
2023/03/14 06:25:59;;;;;;;;;8.00;6.00;;;;;;;;117369;1181;24899;-63
2023/03/14 06:28:28;;;;;;;;;6.50;5.00;;;;;;;;117388;1184;25205;-68
2023/03/14 06:30:56;;;;;;;;;8.00;7.50;;;;;;;;117403;1189;25666;-68
2023/03/14 06:33:25;;;;;;;;;6.75;6.00;;;;;;;;117321;1183;24718;-69
2023/03/14 06:35:53;;;;;;;;;6.00;5.50;;;;;;;;117361;1184;25235;-69
2023/03/14 06:38:22;;;;;;;;;10.50;8.00;;;;;;;;117364;1191;25598;-69
2023/03/14 06:40:50;;;;;;;;;10.00;7.00;;;;;;;;117297;1184;24999;-69
2023/03/14 06:43:19;;;;;;;;;9.00;5.00;;;;;;;;117393;1194;25612;-69
2023/03/14 06:45:47;;;;;;;;;5.00;4.33;;;;;;;;117432;1182;24712;-69
2023/03/14 06:48:16;;;;;;;;;6.00;5.00;;;;;;;;117367;1194;24774;-70
2023/03/14 06:50:44;;;;;;;;;6.00;6.00;;;;;;;;117373;1182;25437;-70
2023/03/14 06:53:12;;;;;;;;;11.00;6.00;;;;;;;;117397;1188;24786;-68
2023/03/14 06:55:42;;;;;;;;;7.00;5.67;;;;;;;;117380;1184;24874;-66
2023/03/14 06:58:11;;;;;;;;;6.50;6.00;;;;;;;;117349;1184;25074;-66
2023/03/14 07:00:39;;;;;;;;;7.00;6.00;;;;;;;;117330;1188;25397;-66
2023/03/14 07:03:09;;;;;;;;;6.00;6.00;;;;;;;;117386;1184;25663;-66
2023/03/14 07:05:41;;;;;;;;;6.50;6.00;;;;;;;;117373;1194;24696;-71
2023/03/14 07:08:11;;;;;;;;;7.00;6.00;;;;;;;;117346;1184;25604;-66
2023/03/14 07:10:39;;;;;;;;;14.50;5.00;;;;;;;;117437;1182;25707;-67
2023/03/14 07:13:07;;;;;;;;;5.50;4.50;;;;;;;;117383;1190;25093;-67
2023/03/14 07:15:36;;;;;;;;;8.33;7.00;;;;;;;;117354;1194;24917;-62
2023/03/14 07:18:05;;;;;;;;;8.00;8.00;;;;;;;;117385;1182;24835;-67
2023/03/14 07:20:33;;;;;;;;;8.33;6.00;;;;;;;;117380;1183;24973;-65
2023/03/14 07:23:03;;;;;;;;;8.00;4.00;;;;;;;;117446;1194;24803;-66
2023/03/14 07:25:31;;;;;;;;;8.00;8.00;;;;;;;;117388;1190;24878;-65
2023/03/14 07:27:59;;;;;;;;;8.75;6.25;;;;;;;;117331;1187;25633;-65
2023/03/14 07:30:28;;;;;;;;;9.00;6.50;;;;;;;;117406;1182;25276;-65
2023/03/14 07:32:56;;;;;;;;;6.50;6.50;;;;;;;;117428;1182;25128;-67
2023/03/14 07:35:25;;;;;;;;;7.67;6.67;;;;;;;;117387;1182;24861;-67
2023/03/14 07:37:53;;;;;;;;;10.00;6.00;;;;;;;;117411;1182;25653;-68
2023/03/14 07:40:22;;;;;;;;;9.25;6.00;;;;;;;;117343;1192;25580;-68
2023/03/14 07:42:51;;;;;;;;;10.67;6.00;;;;;;;;117373;1184;25191;-68
2023/03/14 07:45:19;;;;;;;;;8.50;6.00;;;;;;;;117377;1195;25473;-67
2023/03/14 07:47:47;;;;;;;;;7.25;5.50;;;;;;;;117429;1194;25532;-68
2023/03/14 07:50:16;;;;;;;;;8.50;4.00;;;;;;;;117418;1184;25424;-68
2023/03/14 07:52:44;;;;;;;;;3.50;3.50;;;;;;;;117395;1182;25549;-69
2023/03/14 07:55:13;;;;;;;;;6.00;6.00;;;;;;;;117370;1184;25155;-68
2023/03/14 07:57:41;;;;;;;;;7.67;4.67;;;;;;;;117431;1185;25686;-66
2023/03/14 08:00:11;;;;;;;;;7.00;6.00;;;;;;;;117439;1184;24885;-66
2023/03/14 08:02:42;;;;;;;;;9.33;6.00;;;;;;;;117420;1183;24696;-64
2023/03/14 08:05:11;;;;;;;;;6.67;6.33;;;;;;;;117350;1187;25727;-65
2023/03/14 08:07:39;;;;;;;;;6.50;4.00;;;;;;;;117332;1194;25398;-65
2023/03/14 08:10:08;;;;;;;;;7.67;4.67;;;;;;;;117376;1182;25361;-65
2023/03/14 08:12:37;;;;;;;;;8.50;6.75;;;;;;;;117390;1181;25106;-65
2023/03/14 08:15:06;;;;;;;;;3.00;3.00;;;;;;;;117386;1194;25421;-65
2023/03/14 08:17:34;;;;;;;;;5.00;4.00;;;;;;;;117382;1182;25187;-65
2023/03/14 08:20:06;;;;;;;;;4.50;4.50;;;;;;;;117359;1184;25254;-65
2023/03/14 08:22:35;;;;;;;;;4.00;3.00;;;;;;;;117402;1184;25359;-65
2023/03/14 08:25:04;;;;;;;;;4.00;4.00;;;;;;;;117355;1182;24902;-65
2023/03/14 08:27:32;;;;;;;;;5.00;4.00;;;;;;;;117405;1194;25249;-64
2023/03/14 08:30:01;;;;;;;;;9.67;7.00;;;;;;;;117395;1182;25335;-66
2023/03/14 08:32:29;;;;;;;;;7.00;4.50;;;;;;;;117389;1184;25752;-65
2023/03/14 08:34:58;;;;;;;;;7.50;4.50;;;;;;;;117400;1182;25124;-65
2023/03/14 08:37:27;;;;;;;;;3.33;3.33;;;;;;;;117383;1194;25386;-65
2023/03/14 08:39:55;;;;;;;;;5.00;3.00;;;;;;;;117405;1182;25608;-65
2023/03/14 08:42:24;;;;;;;;;4.00;3.75;;;;;;;;117460;1181;25512;-65
2023/03/14 08:44:52;;;;;;;;;5.75;4.75;;;;;;;;117393;1182;25053;-65
2023/03/14 08:47:20;;;;;;;;;7.33;5.00;;;;;;;;117393;1184;25508;-66
2023/03/14 08:49:49;;;;;;;;;5.25;2.25;;;;;;;;117404;1190;24891;-66
2023/03/14 08:52:18;;;;;;;;;5.67;5.67;;;;;;;;117381;1187;25071;-66
2023/03/14 08:54:46;;;;;;;;;6.00;5.00;;;;;;;;117435;1182;25506;-65
2023/03/14 08:57:15;;;;;;;;;6.25;6.25;;;;;;;;117450;1182;25614;-66
2023/03/14 08:59:43;;;;;;;;;4.00;2.50;;;;;;;;117358;1194;25043;-66
2023/03/14 09:02:12;;;;;;;;;5.00;4.00;;;;;;;;117366;1182;24934;-66
2023/03/14 09:04:41;;;;;;;;;5.00;5.00;;;;;;;;117372;1183;25564;-66
2023/03/14 09:07:09;;;;;;;;;6.00;4.00;;;;;;;;117366;1194;25325;-65
2023/03/14 09:09:37;;;;;;;;;4.00;3.00;;;;;;;;117405;1182;24928;-65
2023/03/14 09:12:06;;;;;;;;;4.00;4.00;;;;;;;;117410;1181;25377;-65
2023/03/14 09:14:36;;;;;;;;;6.00;4.00;;;;;;;;117440;1182;24966;-69
2023/03/14 09:17:04;;;;;;;;;4.00;4.00;;;;;;;;117434;1194;25516;-66
2023/03/14 09:19:33;;;;;;;;;4.50;3.00;;;;;;;;117377;1194;25433;-71
2023/03/14 09:22:02;;;;;;;;;3.00;3.00;;;;;;;;117451;1182;25023;-70
2023/03/14 09:24:31;;;;;;;;;3.50;3.50;;;;;;;;117529;1194;25429;-73
2023/03/14 09:26:59;;;;;;;;;4.00;4.00;;;;;;;;117441;1194;25422;-73
2023/03/14 09:29:27;;;;;;;;;5.00;3.50;;;;;;;;117526;1184;25548;-70
2023/03/14 09:31:58;;;;;;;;;2.67;2.67;;;;;;;;117300;1185;25551;-66
2023/03/14 09:34:26;;;;;;;;;3.33;3.33;;;;;;;;117348;1182;25636;-67
2023/03/14 09:36:55;;;;;;;;;5.67;3.67;;;;;;;;117445;1181;24999;-66
2023/03/14 09:39:23;;;;;;;;;5.00;4.50;;;;;;;;117404;1181;25043;-67
2023/03/14 09:41:55;;;;;;;;;2.25;2.25;;;;;;;;117481;1182;25357;-75
2023/03/14 09:44:32;;;;;;;;;3.00;3.00;;;;;;;;117480;1184;25056;-75
2023/03/14 09:47:05;;;;;;;;;3.33;3.33;;;;;;;;117405;1182;24976;-69
2023/03/14 09:49:37;;;;;;;;;3.00;2.00;;;;;;;;117343;1182;25146;-65
2023/03/14 09:52:18;;;;;;;;;7.00;4.00;;;;;;;;117387;1182;25056;-65
2023/03/14 09:54:52;;;;;;;;;5.00;3.00;;;;;;;;117382;1182;25523;-65
2023/03/14 09:57:25;;;;;;;;;5.00;3.00;;;;;;;;117313;1184;25715;-65
2023/03/14 09:59:57;;;;;;;;;3.00;3.00;;;;;;;;117350;1184;25448;-65
2023/03/14 10:02:34;;;;;;;;;5.67;3.00;;;;;;;;117354;1184;24847;-65
2023/03/14 10:05:13;;;;;;;;;3.50;2.50;;;;;;;;117392;1184;25516;-65
2023/03/14 10:07:42;;;;;;;;;5.50;3.00;;;;;;;;117353;1194;25004;-65
2023/03/14 10:10:20;;;;;;;;;4.00;4.00;;;;;;;;117321;1182;26320;-65
2023/03/14 10:13:14;;;;;;;;;2.00;2.00;;;;;;;;117308;1184;24708;-63
2023/03/14 10:15:55;;;;;;;;;2.00;2.00;;;;;;;;117401;1181;25280;-65
2023/03/14 10:18:24;;;;;;;;;3.50;3.00;;;;;;;;117400;1182;25016;-65
2023/03/14 10:21:16;;;;;;;;;3.00;2.33;;;;;;;;117341;1186;25275;-65
2023/03/14 10:23:45;;;;;;;;;5.67;3.00;;;;;;;;117379;1182;24717;-65
2023/03/14 10:26:19;;;;;;;;;5.00;2.50;;;;;;;;117390;1182;25492;-66
2023/03/14 10:28:51;;;;;;;;;4.00;3.00;;;;;;;;117358;1182;25254;-64
2023/03/14 10:31:25;;;;;;;;;4.50;3.00;;;;;;;;117393;1184;25041;-65
2023/03/14 10:34:02;;;;;;;;;3.00;2.75;;;;;;;;117404;1185;25303;-65
2023/03/14 10:36:32;;;;;;;;;3.00;2.50;;;;;;;;117378;1194;25091;-65
2023/03/14 10:39:22;;;;;;;;;3.00;3.00;;;;;;;;117382;1190;25685;-64
2023/03/14 10:42:02;;;;;;;;;5.00;4.00;;;;;;;;117403;1182;25521;-65
2023/03/14 10:44:31;;;;;;;;;4.00;4.00;;;;;;;;117371;1182;24908;-64
2023/03/14 10:47:02;;;;;;;;;49.00;37.50;;;;;;;;117394;1194;25366;-65
2023/03/14 10:49:36;;;;;;;;;8.00;8.00;;;;;;;;117349;1187;25186;-64
2023/03/14 10:52:23;;;;;;;;;16.00;14.00;;;;;;;;117354;1182;25630;-63
2023/03/14 10:55:12;;;;;;;;;22.00;17.50;;;;;;;;117362;1184;25064;-63
2023/03/14 10:57:42;;;;;;;;;28.50;20.50;;;;;;;;117417;1182;25365;-63
2023/03/14 11:00:23;;;;;;;;;26.00;22.00;;;;;;;;117389;1194;25122;-63
2023/03/14 11:03:00;;;;;;;;;34.33;32.00;;;;;;;;117391;1194;25450;-63
2023/03/14 11:05:49;;;;;;;;;119.33;101.00;;;;;;;;117414;1194;25077;-63
2023/03/14 11:08:44;;;;;;;;;55.00;43.00;;;;;;;;117431;1187;25208;-63
2023/03/14 11:11:21;;;;;;;;;66.00;49.00;;;;;;;;117334;1186;25384;-63
2023/03/14 11:14:13;;;;;;;;;59.50;47.50;;;;;;;;117433;1182;25657;-64
2023/03/14 11:16:52;;;;;;;;;56.50;45.00;;;;;;;;117342;1184;24869;-64
2023/03/14 11:19:45;;;;;;;;;62.00;47.00;;;;;;;;117433;1184;25119;-65
2023/03/14 11:22:13;;;;;;;;;61.00;47.00;;;;;;;;117335;1183;26263;-64
2023/03/14 11:25:02;;;;;;;;;59.00;46.00;;;;;;;;117407;1182;25713;-65
2023/03/14 11:27:46;;;;;;;;;56.00;43.00;;;;;;;;117365;1184;25217;-63
2023/03/14 11:30:21;;;;;;;;;52.00;41.50;;;;;;;;117449;1190;25662;-64
2023/03/14 11:33:27;;;;;;;;;49.50;38.00;;;;;;;;117371;1182;25427;-63
2023/03/14 11:36:10;;;;;;;;;51.50;39.00;;;;;;;;117445;1182;25171;-65
2023/03/14 11:38:50;;;;;;;;;51.67;43.00;;;;;;;;117295;1192;25702;-66
2023/03/14 11:41:40;;;;;;;;;51.50;37.50;;;;;;;;117382;1182;25213;-66
2023/03/14 11:44:46;;;;;;;;;40.00;34.00;;;;;;;;117387;1180;25701;-66
2023/03/14 11:47:33;;;;;;;;;50.00;41.00;;;;;;;;117325;1190;25554;-66
2023/03/14 11:50:17;;;;;;;;;49.00;37.00;;;;;;;;117404;1182;25492;-66
2023/03/14 11:53:09;;;;;;;;;52.00;41.00;;;;;;;;117446;1184;25099;-65
2023/03/14 11:55:41;;;;;;;;;49.00;38.00;;;;;;;;117332;1187;24911;-66
2023/03/14 11:58:26;;;;;;;;;51.00;38.00;;;;;;;;117359;1184;25019;-66
2023/03/14 12:00:55;;;;;;;;;47.50;38.50;;;;;;;;117375;1194;24829;-66
2023/03/14 12:03:35;;;;;;;;;44.50;37.00;;;;;;;;117366;1191;25302;-65
2023/03/14 12:06:21;;;;;;;;;50.00;37.00;;;;;;;;117427;1183;25152;-65
2023/03/14 12:09:03;;;;;;;;;37.50;34.00;;;;;;;;117335;1183;24889;-66
2023/03/14 12:11:52;;;;;;;;;46.00;33.50;;;;;;;;117369;1182;24877;-65
2023/03/14 12:14:32;;;;;;;;;39.00;34.00;;;;;;;;117360;1193;25593;-65
2023/03/14 12:17:36;;;;;;;;;38.00;33.00;;;;;;;;117410;1194;25969;-64
2023/03/14 12:20:14;;;;;;;;;42.00;34.00;;;;;;;;117362;1194;24882;-67
2023/03/14 12:22:52;;;;;;;;;36.00;32.00;;;;;;;;117476;1194;25399;-67
2023/03/14 12:25:22;;;;;;;;;40.00;32.00;;;;;;;;117367;1194;24901;-68
2023/03/14 12:27:56;;;;;;;;;37.00;31.00;;;;;;;;117439;1190;24716;-64
2023/03/14 12:30:28;;;;;;;;;40.00;31.50;;;;;;;;117419;1181;25596;-65
2023/03/14 12:33:15;;;;;;;;;33.00;27.00;;;;;;;;117415;1182;24902;-65
2023/03/14 12:35:49;;;;;;;;;35.00;29.00;;;;;;;;117401;1187;24849;-66
2023/03/14 12:38:36;;;;;;;;;29.33;25.67;;;;;;;;117418;1182;25108;-60
2023/03/14 12:41:19;;;;;;;;;33.00;24.50;;;;;;;;117411;1182;25228;-60
2023/03/14 12:43:48;;;;;;;;;28.00;25.00;;;;;;;;117425;1195;25633;-61
2023/03/14 12:46:26;;;;;;;;;24.00;20.50;;;;;;;;117162;1184;25320;-61
2023/03/14 12:49:01;;;;;;;;;24.00;21.00;;;;;;;;117346;1183;25056;-59
2023/03/14 12:51:38;;;;;;;;;25.00;17.50;;;;;;;;117452;1182;25669;-61
2023/03/14 12:54:44;;;;;;;;;22.50;18.50;;;;;;;;117344;1184;24915;-62
2023/03/14 12:57:31;;;;;;;;;22.50;16.50;;;;;;;;117409;1184;25152;-61
2023/03/14 13:00:01;;;;;;;;;20.50;16.00;;;;;;;;117399;1194;25342;-60
2023/03/14 13:02:39;;;;;;;;;16.00;11.00;;;;;;;;117349;1183;25341;-61
2023/03/14 13:05:14;;;;;;;;;15.50;11.00;;;;;;;;117415;1189;25669;-61
2023/03/14 13:07:45;;;;;;;;;20.00;17.00;;;;;;;;117407;1183;24901;-64
2023/03/14 13:10:24;;;;;;;;;12.00;12.00;;;;;;;;117378;1182;25420;-63
2023/03/14 13:13:15;;;;;;;;;9.50;6.00;;;;;;;;117395;1182;25274;-67
2023/03/14 13:15:46;;;;;;;;;13.50;11.00;;;;;;;;117491;1184;25550;-69
2023/03/14 13:18:27;;;;;;;;;19.00;14.67;;;;;;;;117439;1182;25186;-65
2023/03/14 13:20:59;;;;;;;;;13.67;11.67;;;;;;;;117478;1182;25557;-63
2023/03/14 13:23:31;;;;;;;;;13.50;12.00;;;;;;;;117368;1182;25446;-60
2023/03/14 13:26:01;;;;;;;;;12.33;11.00;;;;;;;;117397;1183;24932;-60
2023/03/14 13:28:30;;;;;;;;;10.33;9.67;;;;;;;;117416;1184;25107;-60
2023/03/14 13:31:01;;;;;;;;;14.00;9.50;;;;;;;;117393;1182;25226;-60
2023/03/14 13:33:29;;;;;;;;;8.50;7.50;;;;;;;;117364;1184;25403;-61
2023/03/14 13:36:03;;;;;;;;;10.00;9.00;;;;;;;;117355;1182;24842;-60
2023/03/14 13:38:35;;;;;;;;;8.50;8.50;;;;;;;;119319;1194;24857;-67
2023/03/14 13:41:07;;;;;;;;;11.00;10.50;;;;;;;;119348;1187;25338;-66
2023/03/14 13:43:40;;;;;;;;;11.00;9.00;;;;;;;;119292;1194;25084;-66
2023/03/14 13:46:16;;;;;;;;;11.00;10.00;;;;;;;;119413;1190;24977;-66
2023/03/14 13:48:47;;;;;;;;;5.00;4.00;;;;;;;;119426;1191;24706;-65
2023/03/14 13:51:18;;;;;;;;;9.00;8.00;;;;;;;;119468;1190;25712;-65
2023/03/14 13:53:54;;;;;;;;;8.75;8.00;;;;;;;;119536;1185;25099;-64
2023/03/14 13:56:25;;;;;;;;;7.25;5.50;;;;;;;;119387;1189;25157;-64
2023/03/14 13:58:54;;;;;;;;;9.50;8.00;;;;;;;;119479;1190;25451;-64
2023/03/14 14:01:32;;;;;;;;;9.67;8.00;;;;;;;;119414;1187;24746;-65
2023/03/14 14:04:09;;;;;;;;;9.67;9.00;;;;;;;;119361;1194;24936;-66
2023/03/14 14:06:39;;;;;;;;;9.25;7.00;;;;;;;;119373;1187;25689;-66
2023/03/14 14:09:15;;;;;;;;;7.33;7.33;;;;;;;;119361;1194;24856;-66
2023/03/14 14:12:02;;;;;;;;;8.00;6.00;;;;;;;;119363;1185;25382;-67
2023/03/14 14:14:58;;;;;;;;;10.25;6.25;;;;;;;;119407;1194;24767;-67
2023/03/14 14:17:32;;;;;;;;;8.00;6.50;;;;;;;;119351;1194;25106;-66
2023/03/14 14:20:01;;;;;;;;;8.50;7.50;;;;;;;;119427;1185;25438;-67
2023/03/14 14:22:29;;;;;;;;;7.75;7.75;;;;;;;;119439;1190;25270;-67
2023/03/14 14:24:58;;;;;;;;;6.00;5.50;;;;;;;;119332;1194;25212;-67
2023/03/14 14:27:31;;;;;;;;;7.50;7.50;;;;;;;;119415;1187;24716;-66
2023/03/14 14:30:01;;;;;;;;;8.00;7.00;;;;;;;;119422;1190;25013;-67
2023/03/14 14:32:37;;;;;;;;;9.33;6.33;;;;;;;;119409;1185;25640;-67
2023/03/14 14:35:07;;;;;;;;;7.50;6.00;;;;;;;;119332;1191;25407;-66
2023/03/14 14:37:41;;;;;;;;;7.00;5.50;;;;;;;;119410;1191;24761;-66
2023/03/14 14:40:22;;;;;;;;;6.00;6.00;;;;;;;;119383;1191;24958;-66
2023/03/14 14:42:51;;;;;;;;;8.00;6.00;;;;;;;;119383;1187;24894;-66
2023/03/14 14:45:23;;;;;;;;;7.00;6.75;;;;;;;;119482;1182;25532;-68
2023/03/14 14:47:58;;;;;;;;;9.25;8.00;;;;;;;;119418;1194;24928;-67
2023/03/14 14:50:31;;;;;;;;;5.00;5.00;;;;;;;;119248;1192;24798;-67